sensor_id;sensor_type;location;lat;lon;timestamp;P1;durP1;ratioP1;P2;durP2;ratioP2
15679;SDS011;15488;48.114;11.532;2023-08-01T00:01:37;3.60;;;2.10;;
15679;SDS011;15488;48.114;11.532;2023-08-01T00:04:05;2.77;;;2.20;;
15679;SDS011;15488;48.114;11.532;2023-08-01T00:06:32;2.57;;;2.00;;
15679;SDS011;15488;48.114;11.532;2023-08-01T00:09:01;2.50;;;1.93;;
15679;SDS011;15488;48.114;11.532;2023-08-01T00:11:28;3.03;;;2.10;;
15679;SDS011;15488;48.114;11.532;2023-08-01T00:13:56;2.40;;;2.20;;
15679;SDS011;15488;48.114;11.532;2023-08-01T00:16:23;2.23;;;1.90;;
15679;SDS011;15488;48.114;11.532;2023-08-01T00:18:51;3.50;;;2.40;;
15679;SDS011;15488;48.114;11.532;2023-08-01T00:21:18;2.30;;;2.10;;
15679;SDS011;15488;48.114;11.532;2023-08-01T00:23:46;2.20;;;2.00;;
15679;SDS011;15488;48.114;11.532;2023-08-01T00:26:14;4.47;;;2.20;;
15679;SDS011;15488;48.114;11.532;2023-08-01T00:28:42;2.73;;;2.10;;
15679;SDS011;15488;48.114;11.532;2023-08-01T00:31:09;2.33;;;2.10;;
15679;SDS011;15488;48.114;11.532;2023-08-01T00:33:37;2.83;;;2.17;;
15679;SDS011;15488;48.114;11.532;2023-08-01T00:36:04;2.97;;;2.20;;
15679;SDS011;15488;48.114;11.532;2023-08-01T00:38:34;2.53;;;2.23;;
15679;SDS011;15488;48.114;11.532;2023-08-01T00:41:02;2.50;;;2.30;;
15679;SDS011;15488;48.114;11.532;2023-08-01T00:43:30;3.47;;;2.10;;
15679;SDS011;15488;48.114;11.532;2023-08-01T00:45:59;2.47;;;2.20;;
15679;SDS011;15488;48.114;11.532;2023-08-01T00:48:29;2.37;;;2.17;;
15679;SDS011;15488;48.114;11.532;2023-08-01T00:50:57;3.00;;;2.30;;
15679;SDS011;15488;48.114;11.532;2023-08-01T00:53:26;2.77;;;2.30;;
15679;SDS011;15488;48.114;11.532;2023-08-01T00:55:54;2.20;;;2.00;;
15679;SDS011;15488;48.114;11.532;2023-08-01T00:58:22;2.63;;;2.23;;
15679;SDS011;15488;48.114;11.532;2023-08-01T01:00:51;2.57;;;2.10;;
15679;SDS011;15488;48.114;11.532;2023-08-01T01:03:20;3.50;;;2.37;;
15679;SDS011;15488;48.114;11.532;2023-08-01T01:05:49;2.40;;;2.20;;
15679;SDS011;15488;48.114;11.532;2023-08-01T01:08:22;3.43;;;2.40;;
15679;SDS011;15488;48.114;11.532;2023-08-01T01:10:50;2.57;;;2.03;;
15679;SDS011;15488;48.114;11.532;2023-08-01T01:13:17;3.10;;;2.30;;
15679;SDS011;15488;48.114;11.532;2023-08-01T01:15:44;2.60;;;2.40;;
15679;SDS011;15488;48.114;11.532;2023-08-01T01:18:13;3.47;;;2.33;;
15679;SDS011;15488;48.114;11.532;2023-08-01T01:20:42;2.20;;;2.00;;
15679;SDS011;15488;48.114;11.532;2023-08-01T01:23:09;3.17;;;2.57;;
15679;SDS011;15488;48.114;11.532;2023-08-01T01:25:38;3.20;;;2.33;;
15679;SDS011;15488;48.114;11.532;2023-08-01T01:28:06;2.80;;;2.27;;
15679;SDS011;15488;48.114;11.532;2023-08-01T01:30:34;2.50;;;2.10;;
15679;SDS011;15488;48.114;11.532;2023-08-01T01:33:03;3.27;;;2.40;;
15679;SDS011;15488;48.114;11.532;2023-08-01T01:35:32;2.90;;;2.23;;
15679;SDS011;15488;48.114;11.532;2023-08-01T01:38:02;3.63;;;2.67;;
15679;SDS011;15488;48.114;11.532;2023-08-01T01:40:30;3.20;;;2.20;;
15679;SDS011;15488;48.114;11.532;2023-08-01T01:42:58;3.17;;;2.47;;
15679;SDS011;15488;48.114;11.532;2023-08-01T01:45:26;3.43;;;2.40;;
15679;SDS011;15488;48.114;11.532;2023-08-01T01:47:54;2.40;;;2.13;;
15679;SDS011;15488;48.114;11.532;2023-08-01T01:50:21;2.70;;;2.47;;
15679;SDS011;15488;48.114;11.532;2023-08-01T01:52:49;2.20;;;1.97;;
15679;SDS011;15488;48.114;11.532;2023-08-01T01:55:17;3.03;;;2.70;;
15679;SDS011;15488;48.114;11.532;2023-08-01T01:57:45;3.03;;;2.50;;
15679;SDS011;15488;48.114;11.532;2023-08-01T02:00:12;2.80;;;2.37;;
15679;SDS011;15488;48.114;11.532;2023-08-01T02:09:18;2.73;;;2.30;;
15679;SDS011;15488;48.114;11.532;2023-08-01T02:11:47;3.60;;;2.40;;
15679;SDS011;15488;48.114;11.532;2023-08-01T02:14:14;3.10;;;2.50;;
15679;SDS011;15488;48.114;11.532;2023-08-01T02:16:42;3.00;;;2.33;;
15679;SDS011;15488;48.114;11.532;2023-08-01T02:19:09;2.63;;;2.40;;
15679;SDS011;15488;48.114;11.532;2023-08-01T02:21:37;2.57;;;2.30;;
15679;SDS011;15488;48.114;11.532;2023-08-01T02:24:04;3.80;;;2.37;;
15679;SDS011;15488;48.114;11.532;2023-08-01T02:26:32;2.40;;;2.20;;
15679;SDS011;15488;48.114;11.532;2023-08-01T02:29:00;3.00;;;2.13;;
15679;SDS011;15488;48.114;11.532;2023-08-01T02:31:28;2.60;;;2.20;;
15679;SDS011;15488;48.114;11.532;2023-08-01T02:33:55;2.67;;;2.30;;
15679;SDS011;15488;48.114;11.532;2023-08-01T02:36:23;3.03;;;2.63;;
15679;SDS011;15488;48.114;11.532;2023-08-01T02:38:50;3.13;;;2.43;;
15679;SDS011;15488;48.114;11.532;2023-08-01T02:41:18;2.80;;;2.50;;
15679;SDS011;15488;48.114;11.532;2023-08-01T02:43:45;3.87;;;2.63;;
15679;SDS011;15488;48.114;11.532;2023-08-01T02:46:14;2.60;;;2.27;;
15679;SDS011;15488;48.114;11.532;2023-08-01T02:48:41;2.93;;;2.10;;
15679;SDS011;15488;48.114;11.532;2023-08-01T02:51:09;3.27;;;2.37;;
15679;SDS011;15488;48.114;11.532;2023-08-01T02:53:36;3.50;;;2.63;;
15679;SDS011;15488;48.114;11.532;2023-08-01T02:56:05;2.87;;;2.30;;
15679;SDS011;15488;48.114;11.532;2023-08-01T02:58:35;3.23;;;2.40;;
15679;SDS011;15488;48.114;11.532;2023-08-01T03:01:05;2.63;;;2.40;;
15679;SDS011;15488;48.114;11.532;2023-08-01T03:03:35;2.70;;;2.20;;
15679;SDS011;15488;48.114;11.532;2023-08-01T03:06:03;3.03;;;2.40;;
15679;SDS011;15488;48.114;11.532;2023-08-01T03:08:30;2.57;;;2.37;;
15679;SDS011;15488;48.114;11.532;2023-08-01T03:10:58;3.30;;;2.30;;
15679;SDS011;15488;48.114;11.532;2023-08-01T03:13:25;3.53;;;2.40;;
15679;SDS011;15488;48.114;11.532;2023-08-01T03:15:53;2.30;;;2.10;;
15679;SDS011;15488;48.114;11.532;2023-08-01T03:18:20;3.93;;;2.40;;
15679;SDS011;15488;48.114;11.532;2023-08-01T03:20:49;3.00;;;2.70;;
15679;SDS011;15488;48.114;11.532;2023-08-01T03:23:17;3.23;;;2.30;;
15679;SDS011;15488;48.114;11.532;2023-08-01T03:25:45;2.90;;;2.37;;
15679;SDS011;15488;48.114;11.532;2023-08-01T03:28:12;3.57;;;2.43;;
15679;SDS011;15488;48.114;11.532;2023-08-01T03:30:40;3.63;;;2.80;;
15679;SDS011;15488;48.114;11.532;2023-08-01T03:33:07;2.83;;;2.53;;
15679;SDS011;15488;48.114;11.532;2023-08-01T03:35:35;2.60;;;2.40;;
15679;SDS011;15488;48.114;11.532;2023-08-01T03:38:04;2.90;;;2.40;;
15679;SDS011;15488;48.114;11.532;2023-08-01T03:40:31;3.43;;;2.50;;
15679;SDS011;15488;48.114;11.532;2023-08-01T03:42:58;3.40;;;2.70;;
15679;SDS011;15488;48.114;11.532;2023-08-01T03:45:26;3.47;;;2.40;;
15679;SDS011;15488;48.114;11.532;2023-08-01T03:47:53;2.80;;;2.40;;
15679;SDS011;15488;48.114;11.532;2023-08-01T03:50:21;3.03;;;2.50;;
15679;SDS011;15488;48.114;11.532;2023-08-01T03:52:48;3.07;;;2.67;;
15679;SDS011;15488;48.114;11.532;2023-08-01T03:55:18;2.70;;;2.50;;
15679;SDS011;15488;48.114;11.532;2023-08-01T03:57:45;2.93;;;2.27;;
15679;SDS011;15488;48.114;11.532;2023-08-01T04:00:13;3.50;;;2.37;;
15679;SDS011;15488;48.114;11.532;2023-08-01T04:02:43;4.83;;;2.77;;
15679;SDS011;15488;48.114;11.532;2023-08-01T04:05:11;2.63;;;2.27;;
15679;SDS011;15488;48.114;11.532;2023-08-01T04:07:38;2.90;;;2.50;;
15679;SDS011;15488;48.114;11.532;2023-08-01T04:10:06;2.60;;;2.40;;
15679;SDS011;15488;48.114;11.532;2023-08-01T04:12:35;2.87;;;2.50;;
15679;SDS011;15488;48.114;11.532;2023-08-01T04:15:03;3.37;;;2.60;;
15679;SDS011;15488;48.114;11.532;2023-08-01T04:17:31;3.20;;;2.90;;
15679;SDS011;15488;48.114;11.532;2023-08-01T04:19:59;3.00;;;2.43;;
15679;SDS011;15488;48.114;11.532;2023-08-01T04:22:26;3.37;;;2.53;;
15679;SDS011;15488;48.114;11.532;2023-08-01T04:24:54;3.17;;;2.87;;
15679;SDS011;15488;48.114;11.532;2023-08-01T04:27:21;3.43;;;2.70;;
15679;SDS011;15488;48.114;11.532;2023-08-01T04:29:50;3.77;;;2.87;;
15679;SDS011;15488;48.114;11.532;2023-08-01T04:32:17;3.67;;;2.67;;
15679;SDS011;15488;48.114;11.532;2023-08-01T04:34:45;3.80;;;3.10;;
15679;SDS011;15488;48.114;11.532;2023-08-01T04:37:12;4.83;;;3.10;;
15679;SDS011;15488;48.114;11.532;2023-08-01T04:39:40;3.90;;;2.90;;
15679;SDS011;15488;48.114;11.532;2023-08-01T04:42:07;4.00;;;2.73;;
15679;SDS011;15488;48.114;11.532;2023-08-01T04:44:35;4.53;;;2.90;;
15679;SDS011;15488;48.114;11.532;2023-08-01T04:47:04;4.33;;;3.30;;
15679;SDS011;15488;48.114;11.532;2023-08-01T04:49:32;4.07;;;3.20;;
15679;SDS011;15488;48.114;11.532;2023-08-01T04:51:59;3.90;;;3.07;;
15679;SDS011;15488;48.114;11.532;2023-08-01T04:54:26;4.20;;;3.00;;
15679;SDS011;15488;48.114;11.532;2023-08-01T04:56:54;4.03;;;3.07;;
15679;SDS011;15488;48.114;11.532;2023-08-01T04:59:21;5.43;;;2.97;;
15679;SDS011;15488;48.114;11.532;2023-08-01T05:01:49;4.37;;;3.10;;
15679;SDS011;15488;48.114;11.532;2023-08-01T05:04:17;3.97;;;3.27;;
15679;SDS011;15488;48.114;11.532;2023-08-01T05:06:45;4.90;;;3.20;;
15679;SDS011;15488;48.114;11.532;2023-08-01T05:09:12;3.30;;;3.00;;
15679;SDS011;15488;48.114;11.532;2023-08-01T05:11:40;4.20;;;2.60;;
15679;SDS011;15488;48.114;11.532;2023-08-01T05:14:07;4.17;;;3.00;;
15679;SDS011;15488;48.114;11.532;2023-08-01T05:16:35;3.63;;;2.90;;
15679;SDS011;15488;48.114;11.532;2023-08-01T05:19:02;3.50;;;2.80;;
15679;SDS011;15488;48.114;11.532;2023-08-01T05:21:31;3.67;;;3.07;;
15679;SDS011;15488;48.114;11.532;2023-08-01T05:23:58;4.07;;;3.10;;
15679;SDS011;15488;48.114;11.532;2023-08-01T05:26:26;6.33;;;3.07;;
15679;SDS011;15488;48.114;11.532;2023-08-01T05:28:53;3.83;;;2.97;;
15679;SDS011;15488;48.114;11.532;2023-08-01T05:31:21;5.37;;;3.37;;
15679;SDS011;15488;48.114;11.532;2023-08-01T05:33:48;3.20;;;2.73;;
15679;SDS011;15488;48.114;11.532;2023-08-01T05:36:16;5.47;;;3.10;;
15679;SDS011;15488;48.114;11.532;2023-08-01T05:38:45;3.43;;;2.93;;
15679;SDS011;15488;48.114;11.532;2023-08-01T05:41:12;4.30;;;2.63;;
15679;SDS011;15488;48.114;11.532;2023-08-01T05:43:39;3.53;;;2.80;;
15679;SDS011;15488;48.114;11.532;2023-08-01T05:46:07;4.10;;;2.80;;
15679;SDS011;15488;48.114;11.532;2023-08-01T05:48:35;4.50;;;2.93;;
15679;SDS011;15488;48.114;11.532;2023-08-01T05:51:02;4.73;;;2.93;;
15679;SDS011;15488;48.114;11.532;2023-08-01T05:53:29;3.60;;;2.87;;
15679;SDS011;15488;48.114;11.532;2023-08-01T05:55:58;6.90;;;3.03;;
15679;SDS011;15488;48.114;11.532;2023-08-01T05:58:26;4.00;;;3.20;;
15679;SDS011;15488;48.114;11.532;2023-08-01T06:00:53;5.57;;;3.10;;
15679;SDS011;15488;48.114;11.532;2023-08-01T06:03:21;3.37;;;3.00;;
15679;SDS011;15488;48.114;11.532;2023-08-01T06:05:48;3.77;;;2.87;;
15679;SDS011;15488;48.114;11.532;2023-08-01T06:08:16;4.83;;;3.07;;
15679;SDS011;15488;48.114;11.532;2023-08-01T06:10:43;4.17;;;2.80;;
15679;SDS011;15488;48.114;11.532;2023-08-01T06:13:12;3.90;;;2.80;;
15679;SDS011;15488;48.114;11.532;2023-08-01T06:15:40;5.40;;;2.63;;
15679;SDS011;15488;48.114;11.532;2023-08-01T06:18:07;3.30;;;2.83;;
15679;SDS011;15488;48.114;11.532;2023-08-01T06:20:36;5.53;;;3.40;;
15679;SDS011;15488;48.114;11.532;2023-08-01T06:23:03;4.13;;;2.87;;
15679;SDS011;15488;48.114;11.532;2023-08-01T06:25:31;4.97;;;2.73;;
15679;SDS011;15488;48.114;11.532;2023-08-01T06:27:58;3.30;;;2.70;;
15679;SDS011;15488;48.114;11.532;2023-08-01T06:30:27;3.70;;;2.80;;
15679;SDS011;15488;48.114;11.532;2023-08-01T06:32:55;3.10;;;2.70;;
15679;SDS011;15488;48.114;11.532;2023-08-01T06:35:22;7.07;;;2.90;;
15679;SDS011;15488;48.114;11.532;2023-08-01T06:37:50;4.17;;;2.73;;
15679;SDS011;15488;48.114;11.532;2023-08-01T06:40:17;3.90;;;2.83;;
15679;SDS011;15488;48.114;11.532;2023-08-01T06:42:45;3.50;;;2.53;;
15679;SDS011;15488;48.114;11.532;2023-08-01T06:45:12;3.63;;;2.50;;
15679;SDS011;15488;48.114;11.532;2023-08-01T06:47:41;2.87;;;2.40;;
15679;SDS011;15488;48.114;11.532;2023-08-01T06:50:09;3.17;;;2.30;;
15679;SDS011;15488;48.114;11.532;2023-08-01T06:52:36;4.07;;;2.63;;
15679;SDS011;15488;48.114;11.532;2023-08-01T06:55:04;3.80;;;2.70;;
15679;SDS011;15488;48.114;11.532;2023-08-01T06:57:32;3.87;;;2.80;;
15679;SDS011;15488;48.114;11.532;2023-08-01T06:59:59;3.27;;;2.30;;
15679;SDS011;15488;48.114;11.532;2023-08-01T07:02:27;2.40;;;2.03;;
15679;SDS011;15488;48.114;11.532;2023-08-01T07:04:56;3.27;;;2.40;;
15679;SDS011;15488;48.114;11.532;2023-08-01T07:07:24;2.50;;;2.30;;
15679;SDS011;15488;48.114;11.532;2023-08-01T07:09:51;3.40;;;2.60;;
15679;SDS011;15488;48.114;11.532;2023-08-01T07:12:18;2.90;;;2.30;;
15679;SDS011;15488;48.114;11.532;2023-08-01T07:14:46;3.03;;;2.37;;
15679;SDS011;15488;48.114;11.532;2023-08-01T07:17:13;3.03;;;2.30;;
15679;SDS011;15488;48.114;11.532;2023-08-01T07:19:41;2.63;;;2.23;;
15679;SDS011;15488;48.114;11.532;2023-08-01T07:22:10;3.00;;;2.30;;
15679;SDS011;15488;48.114;11.532;2023-08-01T07:24:37;2.70;;;2.23;;
15679;SDS011;15488;48.114;11.532;2023-08-01T07:27:05;3.40;;;2.60;;
15679;SDS011;15488;48.114;11.532;2023-08-01T07:29:32;3.57;;;2.20;;
15679;SDS011;15488;48.114;11.532;2023-08-01T07:32:00;2.80;;;2.30;;
15679;SDS011;15488;48.114;11.532;2023-08-01T07:34:27;2.67;;;2.30;;
15679;SDS011;15488;48.114;11.532;2023-08-01T07:36:55;3.13;;;2.20;;
15679;SDS011;15488;48.114;11.532;2023-08-01T07:39:23;4.03;;;2.57;;
15679;SDS011;15488;48.114;11.532;2023-08-01T07:41:51;2.43;;;2.20;;
15679;SDS011;15488;48.114;11.532;2023-08-01T07:44:18;6.53;;;2.87;;
15679;SDS011;15488;48.114;11.532;2023-08-01T07:46:46;2.90;;;2.30;;
15679;SDS011;15488;48.114;11.532;2023-08-01T07:49:13;2.33;;;2.13;;
15679;SDS011;15488;48.114;11.532;2023-08-01T07:51:41;4.40;;;2.20;;
15679;SDS011;15488;48.114;11.532;2023-08-01T07:54:08;3.50;;;2.40;;
15679;SDS011;15488;48.114;11.532;2023-08-01T07:56:37;3.13;;;2.53;;
15679;SDS011;15488;48.114;11.532;2023-08-01T07:59:05;3.43;;;2.30;;
15679;SDS011;15488;48.114;11.532;2023-08-01T08:01:32;3.40;;;2.27;;
15679;SDS011;15488;48.114;11.532;2023-08-01T08:04:00;3.90;;;2.60;;
15679;SDS011;15488;48.114;11.532;2023-08-01T08:06:27;2.80;;;2.37;;
15679;SDS011;15488;48.114;11.532;2023-08-01T08:08:56;3.47;;;2.20;;
15679;SDS011;15488;48.114;11.532;2023-08-01T08:11:23;2.77;;;2.30;;
15679;SDS011;15488;48.114;11.532;2023-08-01T08:13:52;2.93;;;2.30;;
15679;SDS011;15488;48.114;11.532;2023-08-01T08:16:20;3.60;;;2.23;;
15679;SDS011;15488;48.114;11.532;2023-08-01T08:18:47;2.80;;;2.30;;
15679;SDS011;15488;48.114;11.532;2023-08-01T08:21:15;3.13;;;2.60;;
15679;SDS011;15488;48.114;11.532;2023-08-01T08:23:42;2.90;;;2.40;;
15679;SDS011;15488;48.114;11.532;2023-08-01T08:26:10;2.70;;;2.40;;
15679;SDS011;15488;48.114;11.532;2023-08-01T08:28:38;4.40;;;2.33;;
15679;SDS011;15488;48.114;11.532;2023-08-01T08:31:08;4.00;;;2.67;;
15679;SDS011;15488;48.114;11.532;2023-08-01T08:33:36;4.63;;;2.63;;
15679;SDS011;15488;48.114;11.532;2023-08-01T08:36:03;3.00;;;2.70;;
15679;SDS011;15488;48.114;11.532;2023-08-01T08:38:31;3.40;;;2.60;;
15679;SDS011;15488;48.114;11.532;2023-08-01T08:41:02;3.17;;;2.27;;
15679;SDS011;15488;48.114;11.532;2023-08-01T08:43:35;3.90;;;2.67;;
15679;SDS011;15488;48.114;11.532;2023-08-01T08:46:04;3.70;;;2.50;;
15679;SDS011;15488;48.114;11.532;2023-08-01T08:48:33;2.97;;;2.67;;
15679;SDS011;15488;48.114;11.532;2023-08-01T08:51:02;5.13;;;2.60;;
15679;SDS011;15488;48.114;11.532;2023-08-01T08:53:30;3.70;;;2.90;;
15679;SDS011;15488;48.114;11.532;2023-08-01T08:55:58;2.80;;;2.47;;
15679;SDS011;15488;48.114;11.532;2023-08-01T08:58:26;3.30;;;2.70;;
15679;SDS011;15488;48.114;11.532;2023-08-01T09:00:56;4.13;;;3.10;;
15679;SDS011;15488;48.114;11.532;2023-08-01T09:03:24;3.30;;;2.40;;
15679;SDS011;15488;48.114;11.532;2023-08-01T09:05:54;3.20;;;2.40;;
15679;SDS011;15488;48.114;11.532;2023-08-01T09:08:27;5.27;;;2.90;;
15679;SDS011;15488;48.114;11.532;2023-08-01T09:10:58;2.77;;;2.47;;
15679;SDS011;15488;48.114;11.532;2023-08-01T09:13:26;4.37;;;2.97;;
15679;SDS011;15488;48.114;11.532;2023-08-01T09:15:53;4.70;;;2.90;;
15679;SDS011;15488;48.114;11.532;2023-08-01T09:18:22;3.47;;;2.97;;
15679;SDS011;15488;48.114;11.532;2023-08-01T09:20:50;4.10;;;2.97;;
15679;SDS011;15488;48.114;11.532;2023-08-01T09:23:19;4.60;;;2.80;;
15679;SDS011;15488;48.114;11.532;2023-08-01T09:25:46;2.97;;;2.67;;
15679;SDS011;15488;48.114;11.532;2023-08-01T09:28:15;3.43;;;2.67;;
15679;SDS011;15488;48.114;11.532;2023-08-01T09:30:49;3.40;;;2.83;;
15679;SDS011;15488;48.114;11.532;2023-08-01T09:33:19;4.23;;;3.13;;
15679;SDS011;15488;48.114;11.532;2023-08-01T09:35:48;5.03;;;3.30;;
15679;SDS011;15488;48.114;11.532;2023-08-01T09:38:17;3.53;;;3.00;;
15679;SDS011;15488;48.114;11.532;2023-08-01T09:40:46;4.37;;;3.20;;
15679;SDS011;15488;48.114;11.532;2023-08-01T09:43:15;4.80;;;3.17;;
15679;SDS011;15488;48.114;11.532;2023-08-01T09:45:49;4.33;;;3.10;;
15679;SDS011;15488;48.114;11.532;2023-08-01T09:48:22;5.57;;;2.90;;
15679;SDS011;15488;48.114;11.532;2023-08-01T09:50:51;6.20;;;3.27;;
15679;SDS011;15488;48.114;11.532;2023-08-01T09:53:20;3.77;;;2.73;;
15679;SDS011;15488;48.114;11.532;2023-08-01T09:55:47;3.73;;;2.70;;
15679;SDS011;15488;48.114;11.532;2023-08-01T09:58:17;3.87;;;2.67;;
15679;SDS011;15488;48.114;11.532;2023-08-01T10:00:48;3.13;;;2.37;;
15679;SDS011;15488;48.114;11.532;2023-08-01T10:03:16;3.70;;;2.77;;
15679;SDS011;15488;48.114;11.532;2023-08-01T10:05:44;3.80;;;2.60;;
15679;SDS011;15488;48.114;11.532;2023-08-01T10:08:12;3.20;;;2.43;;
15679;SDS011;15488;48.114;11.532;2023-08-01T10:10:42;4.03;;;2.70;;
15679;SDS011;15488;48.114;11.532;2023-08-01T10:13:10;6.10;;;2.67;;
15679;SDS011;15488;48.114;11.532;2023-08-01T10:15:40;4.43;;;2.63;;
15679;SDS011;15488;48.114;11.532;2023-08-01T10:18:08;4.10;;;3.07;;
15679;SDS011;15488;48.114;11.532;2023-08-01T10:20:36;4.43;;;2.57;;
15679;SDS011;15488;48.114;11.532;2023-08-01T10:23:04;4.13;;;2.43;;
15679;SDS011;15488;48.114;11.532;2023-08-01T10:25:32;2.87;;;2.30;;
15679;SDS011;15488;48.114;11.532;2023-08-01T10:28:02;4.13;;;2.70;;
15679;SDS011;15488;48.114;11.532;2023-08-01T10:30:30;3.37;;;2.70;;
15679;SDS011;15488;48.114;11.532;2023-08-01T10:32:58;3.17;;;2.37;;
15679;SDS011;15488;48.114;11.532;2023-08-01T10:35:33;4.30;;;2.50;;
15679;SDS011;15488;48.114;11.532;2023-08-01T10:38:04;3.77;;;2.60;;
15679;SDS011;15488;48.114;11.532;2023-08-01T10:40:33;3.20;;;2.60;;
15679;SDS011;15488;48.114;11.532;2023-08-01T10:43:03;5.07;;;2.83;;
15679;SDS011;15488;48.114;11.532;2023-08-01T10:45:30;3.47;;;2.60;;
15679;SDS011;15488;48.114;11.532;2023-08-01T10:48:07;4.50;;;2.87;;
15679;SDS011;15488;48.114;11.532;2023-08-01T10:50:36;2.87;;;2.40;;
15679;SDS011;15488;48.114;11.532;2023-08-01T10:53:05;3.47;;;2.60;;
15679;SDS011;15488;48.114;11.532;2023-08-01T10:55:38;3.03;;;2.67;;
15679;SDS011;15488;48.114;11.532;2023-08-01T10:58:11;5.10;;;3.03;;
15679;SDS011;15488;48.114;11.532;2023-08-01T11:00:39;4.83;;;2.40;;
15679;SDS011;15488;48.114;11.532;2023-08-01T11:03:07;3.40;;;2.60;;
15679;SDS011;15488;48.114;11.532;2023-08-01T11:05:37;3.17;;;2.60;;
15679;SDS011;15488;48.114;11.532;2023-08-01T11:08:05;3.53;;;2.27;;
15679;SDS011;15488;48.114;11.532;2023-08-01T11:10:32;3.30;;;2.20;;
15679;SDS011;15488;48.114;11.532;2023-08-01T11:13:00;2.90;;;2.17;;
15679;SDS011;15488;48.114;11.532;2023-08-01T11:15:29;2.00;;;1.70;;
15679;SDS011;15488;48.114;11.532;2023-08-01T11:17:57;2.03;;;1.67;;
15679;SDS011;15488;48.114;11.532;2023-08-01T11:20:24;2.03;;;1.57;;
15679;SDS011;15488;48.114;11.532;2023-08-01T11:22:54;3.47;;;2.07;;
15679;SDS011;15488;48.114;11.532;2023-08-01T11:25:34;2.23;;;1.70;;
15679;SDS011;15488;48.114;11.532;2023-08-01T11:28:04;2.50;;;1.70;;
15679;SDS011;15488;48.114;11.532;2023-08-01T11:30:34;2.80;;;1.67;;
15679;SDS011;15488;48.114;11.532;2023-08-01T11:33:02;2.77;;;1.57;;
15679;SDS011;15488;48.114;11.532;2023-08-01T11:35:39;2.53;;;1.77;;
15679;SDS011;15488;48.114;11.532;2023-08-01T11:38:07;2.30;;;1.57;;
15679;SDS011;15488;48.114;11.532;2023-08-01T11:40:35;2.90;;;1.97;;
15679;SDS011;15488;48.114;11.532;2023-08-01T11:43:03;2.70;;;1.80;;
15679;SDS011;15488;48.114;11.532;2023-08-01T11:45:30;1.77;;;1.67;;
15679;SDS011;15488;48.114;11.532;2023-08-01T11:47:59;2.00;;;1.80;;
15679;SDS011;15488;48.114;11.532;2023-08-01T11:50:27;2.97;;;1.70;;
15679;SDS011;15488;48.114;11.532;2023-08-01T11:52:55;2.47;;;2.00;;
15679;SDS011;15488;48.114;11.532;2023-08-01T11:55:23;2.57;;;1.90;;
15679;SDS011;15488;48.114;11.532;2023-08-01T11:57:55;2.57;;;2.10;;
15679;SDS011;15488;48.114;11.532;2023-08-01T12:00:25;2.50;;;2.03;;
15679;SDS011;15488;48.114;11.532;2023-08-01T12:03:04;3.20;;;1.97;;
15679;SDS011;15488;48.114;11.532;2023-08-01T12:05:32;2.20;;;1.90;;
15679;SDS011;15488;48.114;11.532;2023-08-01T12:08:09;2.77;;;2.00;;
15679;SDS011;15488;48.114;11.532;2023-08-01T12:10:38;2.30;;;1.90;;
15679;SDS011;15488;48.114;11.532;2023-08-01T12:13:06;1.97;;;1.77;;
15679;SDS011;15488;48.114;11.532;2023-08-01T12:15:45;2.27;;;1.90;;
15679;SDS011;15488;48.114;11.532;2023-08-01T12:18:20;2.33;;;2.00;;
15679;SDS011;15488;48.114;11.532;2023-08-01T12:20:48;2.63;;;2.03;;
15679;SDS011;15488;48.114;11.532;2023-08-01T12:23:15;2.80;;;1.80;;
15679;SDS011;15488;48.114;11.532;2023-08-01T12:25:43;2.27;;;1.97;;
15679;SDS011;15488;48.114;11.532;2023-08-01T12:28:11;3.00;;;1.73;;
15679;SDS011;15488;48.114;11.532;2023-08-01T12:30:39;1.80;;;1.53;;
15679;SDS011;15488;48.114;11.532;2023-08-01T12:33:06;2.03;;;1.67;;
15679;SDS011;15488;48.114;11.532;2023-08-01T12:35:38;2.00;;;1.73;;
15679;SDS011;15488;48.114;11.532;2023-08-01T12:38:06;1.70;;;1.60;;
15679;SDS011;15488;48.114;11.532;2023-08-01T12:40:34;1.77;;;1.40;;
15679;SDS011;15488;48.114;11.532;2023-08-01T12:43:02;3.70;;;1.90;;
15679;SDS011;15488;48.114;11.532;2023-08-01T12:45:30;1.90;;;1.60;;
15679;SDS011;15488;48.114;11.532;2023-08-01T12:47:58;1.97;;;1.53;;
15679;SDS011;15488;48.114;11.532;2023-08-01T12:50:25;3.47;;;1.67;;
15679;SDS011;15488;48.114;11.532;2023-08-01T12:52:54;2.00;;;1.53;;
15679;SDS011;15488;48.114;11.532;2023-08-01T12:55:22;1.80;;;1.60;;
15679;SDS011;15488;48.114;11.532;2023-08-01T12:57:49;2.13;;;1.70;;
15679;SDS011;15488;48.114;11.532;2023-08-01T13:00:17;1.97;;;1.40;;
15679;SDS011;15488;48.114;11.532;2023-08-01T13:02:45;2.23;;;1.53;;
15679;SDS011;15488;48.114;11.532;2023-08-01T13:05:14;2.63;;;1.60;;
15679;SDS011;15488;48.114;11.532;2023-08-01T13:07:41;3.40;;;1.80;;
15679;SDS011;15488;48.114;11.532;2023-08-01T13:10:11;1.70;;;1.40;;
15679;SDS011;15488;48.114;11.532;2023-08-01T13:12:38;2.00;;;1.50;;
15679;SDS011;15488;48.114;11.532;2023-08-01T13:15:06;1.80;;;1.60;;
15679;SDS011;15488;48.114;11.532;2023-08-01T13:17:34;1.80;;;1.70;;
15679;SDS011;15488;48.114;11.532;2023-08-01T13:20:01;2.13;;;1.70;;
15679;SDS011;15488;48.114;11.532;2023-08-01T13:22:29;2.70;;;1.63;;
15679;SDS011;15488;48.114;11.532;2023-08-01T13:24:57;1.70;;;1.60;;
15679;SDS011;15488;48.114;11.532;2023-08-01T13:27:26;2.53;;;1.90;;
15679;SDS011;15488;48.114;11.532;2023-08-01T13:29:53;2.23;;;1.80;;
15679;SDS011;15488;48.114;11.532;2023-08-01T13:32:20;1.50;;;1.40;;
15679;SDS011;15488;48.114;11.532;2023-08-01T13:34:48;3.07;;;1.63;;
15679;SDS011;15488;48.114;11.532;2023-08-01T13:37:15;1.77;;;1.50;;
15679;SDS011;15488;48.114;11.532;2023-08-01T13:39:43;3.10;;;1.83;;
15679;SDS011;15488;48.114;11.532;2023-08-01T13:42:11;2.27;;;1.80;;
15679;SDS011;15488;48.114;11.532;2023-08-01T13:44:40;2.10;;;1.90;;
15679;SDS011;15488;48.114;11.532;2023-08-01T13:47:07;2.57;;;1.90;;
15679;SDS011;15488;48.114;11.532;2023-08-01T13:49:35;2.67;;;1.63;;
15679;SDS011;15488;48.114;11.532;2023-08-01T13:52:03;2.37;;;2.00;;
15679;SDS011;15488;48.114;11.532;2023-08-01T13:54:31;1.80;;;1.47;;
15679;SDS011;15488;48.114;11.532;2023-08-01T13:56:59;2.20;;;2.00;;
15679;SDS011;15488;48.114;11.532;2023-08-01T13:59:26;2.00;;;1.80;;
15679;SDS011;15488;48.114;11.532;2023-08-01T14:01:56;1.77;;;1.67;;
15679;SDS011;15488;48.114;11.532;2023-08-01T14:04:23;2.88;;;1.92;;
15679;SDS011;15488;48.114;11.532;2023-08-01T14:06:51;3.42;;;3.00;;
15679;SDS011;15488;48.114;11.532;2023-08-01T14:09:18;2.22;;;2.03;;
15679;SDS011;15488;48.114;11.532;2023-08-01T14:11:45;2.00;;;1.80;;
15679;SDS011;15488;48.114;11.532;2023-08-01T14:14:13;1.58;;;1.48;;
15679;SDS011;15488;48.114;11.532;2023-08-01T14:16:40;1.85;;;1.70;;
15679;SDS011;15488;48.114;11.532;2023-08-01T14:19:09;1.77;;;1.67;;
15679;SDS011;15488;48.114;11.532;2023-08-01T14:21:37;2.60;;;1.90;;
15679;SDS011;15488;48.114;11.532;2023-08-01T14:24:04;2.00;;;1.63;;
15679;SDS011;15488;48.114;11.532;2023-08-01T14:26:31;1.87;;;1.60;;
15679;SDS011;15488;48.114;11.532;2023-08-01T14:28:59;2.20;;;1.83;;
15679;SDS011;15488;48.114;11.532;2023-08-01T14:31:26;2.57;;;1.67;;
15679;SDS011;15488;48.114;11.532;2023-08-01T14:33:54;2.57;;;1.50;;
15679;SDS011;15488;48.114;11.532;2023-08-01T14:36:23;2.77;;;1.67;;
15679;SDS011;15488;48.114;11.532;2023-08-01T14:38:50;3.47;;;1.40;;
15679;SDS011;15488;48.114;11.532;2023-08-01T14:41:19;1.90;;;1.53;;
15679;SDS011;15488;48.114;11.532;2023-08-01T14:43:47;2.50;;;1.87;;
15679;SDS011;15488;48.114;11.532;2023-08-01T14:46:14;2.23;;;1.63;;